Time;durP1;ratioP1;P1;durP2;ratioP2;P2;SDS_P1;SDS_P2;PMS_P1;PMS_P2;Temp;Humidity;BMP_temperature;BMP_pressure;BME280_temperature;BME280_humidity;BME280_pressure;Samples;Min_cycle;Max_cycle;Signal;HPM_P1;HPM_P2
2022/12/04 00:00:40;;;;;;;170.00;46.58;;;2.40;99.90;;;1.12;100.00;97021.59;5112935;28;20403;-73
2022/12/04 00:03:06;;;;;;;169.40;47.20;;;2.40;99.90;;;1.11;100.00;97012.97;5112233;28;20396;-73
2022/12/04 00:05:32;;;;;;;174.48;46.60;;;2.40;99.90;;;1.11;100.00;97018.19;5112624;28;20403;-72
2022/12/04 00:07:58;;;;;;;158.07;45.03;;;2.40;99.90;;;1.10;100.00;97016.59;5112747;28;20496;-73
2022/12/04 00:10:25;;;;;;;170.43;47.80;;;2.40;99.90;;;1.14;100.00;97016.97;5112814;28;20393;-72
2022/12/04 00:12:51;;;;;;;152.33;43.47;;;2.40;99.90;;;1.13;100.00;97017.97;5111876;28;20489;-72
2022/12/04 00:15:17;;;;;;;156.60;44.72;;;2.40;99.90;;;1.12;100.00;97011.19;5112591;28;20538;-72
2022/12/04 00:17:46;;;;;;;175.98;46.75;;;2.40;99.90;;;1.13;100.00;97020.56;5094433;28;20891;-72
2022/12/04 00:20:12;;;;;;;168.38;44.45;;;2.40;99.90;;;1.12;100.00;97016.38;5112438;28;20430;-72
2022/12/04 00:22:38;;;;;;;162.80;44.70;;;2.40;99.90;;;1.14;100.00;97009.94;5112277;28;20419;-72
2022/12/04 00:25:04;;;;;;;171.45;46.13;;;2.40;99.90;;;1.14;100.00;97001.34;5111808;28;20885;-73
2022/12/04 00:27:32;;;;;;;159.30;45.13;;;2.40;99.90;;;1.15;100.00;97002.94;5112367;28;20883;-73
2022/12/04 00:29:57;;;;;;;163.55;48.45;;;2.50;99.90;;;1.18;100.00;96994.72;5112530;28;20396;-73
2022/12/04 00:32:23;;;;;;;165.25;47.58;;;2.50;99.90;;;1.15;100.00;96987.31;5112500;28;20408;-72
2022/12/04 00:34:51;;;;;;;165.07;46.37;;;2.40;99.90;;;1.13;100.00;96991.91;5093094;28;20446;-72
2022/12/04 00:37:17;;;;;;;160.53;44.23;;;2.40;99.90;;;1.13;100.00;96989.28;5112334;28;20508;-73
2022/12/04 00:39:43;;;;;;;161.75;47.33;;;2.40;99.90;;;1.14;100.00;96994.31;5112244;28;20407;-72
2022/12/04 00:42:08;;;;;;;156.60;45.97;;;2.40;99.90;;;1.13;100.00;96999.72;5112149;28;20428;-73
2022/12/04 00:44:36;;;;;;;157.43;45.45;;;2.40;99.90;;;1.10;100.00;97006.16;5111291;28;20774;-73
2022/12/04 00:47:02;;;;;;;155.88;46.15;;;2.40;99.90;;;1.08;100.00;97008.16;5111963;28;20393;-72
2022/12/04 00:49:27;;;;;;;160.43;47.05;;;2.40;99.90;;;1.10;100.00;96997.53;5112078;28;20773;-72
2022/12/04 00:51:53;;;;;;;157.98;45.35;;;2.40;99.90;;;1.09;100.00;96993.31;5112051;28;20396;-72
2022/12/04 00:54:20;;;;;;;160.20;44.30;;;2.40;99.90;;;1.11;100.00;96996.53;5111125;28;20397;-72
2022/12/04 00:56:46;;;;;;;144.20;43.25;;;2.40;99.90;;;1.14;100.00;96998.72;5111995;28;20430;-72
2022/12/04 00:59:12;;;;;;;143.88;42.42;;;2.40;99.90;;;1.11;100.00;96999.13;5111781;28;21050;-72
2022/12/04 01:01:39;;;;;;;141.20;43.03;;;2.40;99.90;;;1.11;100.00;96999.94;5111894;28;20491;-72
2022/12/04 01:04:05;;;;;;;147.85;42.47;;;2.40;99.90;;;1.09;100.00;96995.94;5110907;28;20758;-72
2022/12/04 01:06:33;;;;;;;141.40;41.35;;;2.40;99.90;;;1.08;100.00;97002.94;5111575;28;20412;-72
2022/12/04 01:09:02;;;;;;;145.35;42.72;;;2.40;99.90;;;1.04;100.00;96995.72;5107386;28;20432;-73
2022/12/04 01:11:29;;;;;;;138.88;41.60;;;2.40;99.90;;;1.06;100.00;96988.50;5091063;28;20418;-72
2022/12/04 01:13:56;;;;;;;143.30;40.60;;;2.30;99.90;;;1.05;100.00;96984.31;5090543;28;20877;-72
2022/12/04 01:16:26;;;;;;;144.00;41.13;;;2.40;99.90;;;1.06;100.00;96984.09;5091085;28;20481;-73
2022/12/04 01:18:54;;;;;;;149.55;41.60;;;2.40;99.90;;;1.06;100.00;96976.28;5090993;28;20406;-74
2022/12/04 01:21:21;;;;;;;141.48;43.75;;;2.40;99.90;;;0.99;100.00;96983.28;5090988;28;20879;-72
2022/12/04 01:23:47;;;;;;;126.30;39.55;;;2.30;99.90;;;1.00;100.00;96979.69;5090213;28;20402;-72
2022/12/04 01:26:13;;;;;;;138.93;40.13;;;2.30;99.90;;;0.99;100.00;96980.69;5090818;28;20398;-72
2022/12/04 01:28:40;;;;;;;140.35;40.30;;;2.30;99.90;;;1.01;100.00;96989.09;5090862;28;20476;-73
2022/12/04 01:31:08;;;;;;;140.93;41.60;;;2.30;99.90;;;1.04;100.00;96988.72;5090846;28;20444;-72
2022/12/04 01:33:36;;;;;;;145.38;41.90;;;2.30;99.90;;;1.02;100.00;96990.72;5089886;28;20495;-72
2022/12/04 01:36:10;;;;;;;146.60;41.90;;;2.30;99.90;;;1.04;100.00;96986.13;5091092;28;20433;-72
2022/12/04 01:38:36;;;;;;;139.90;42.67;;;2.30;99.90;;;1.08;100.00;96987.31;5090700;28;20394;-72
2022/12/04 01:41:04;;;;;;;146.98;42.63;;;2.30;99.90;;;1.05;100.00;96984.31;5090552;28;20402;-72
2022/12/04 01:43:32;;;;;;;140.50;40.25;;;2.40;99.90;;;1.06;100.00;96988.50;5089624;28;20776;-74
2022/12/04 01:46:00;;;;;;;134.18;40.97;;;2.40;99.90;;;1.14;100.00;96981.28;5090173;28;20962;-72
2022/12/04 01:48:31;;;;;;;143.68;42.40;;;2.40;99.90;;;1.10;100.00;96981.91;5090390;28;20414;-72
2022/12/04 01:51:06;;;;;;;141.98;40.88;;;2.40;99.90;;;1.08;100.00;96978.69;5090409;28;20891;-72
2022/12/04 01:53:33;;;;;;;128.25;40.70;;;2.40;99.90;;;1.13;100.00;96984.09;5089606;28;20394;-72
2022/12/04 01:56:00;;;;;;;143.05;40.17;;;2.40;99.90;;;1.06;100.00;96983.28;5090377;28;20547;-72
2022/12/04 01:58:31;;;;;;;132.25;38.47;;;2.40;99.90;;;1.05;100.00;96984.31;5090364;28;20411;-74
2022/12/04 02:01:03;;;;;;;128.55;39.53;;;2.40;99.90;;;1.03;100.00;96979.28;5090319;28;20911;-74
2022/12/04 02:03:29;;;;;;;142.98;40.75;;;2.40;99.90;;;1.03;100.00;96988.91;5089373;28;20406;-75
2022/12/04 02:05:55;;;;;;;130.48;39.08;;;2.30;99.90;;;1.02;100.00;96988.09;5089985;28;20405;-75
2022/12/04 02:08:23;;;;;;;134.02;38.92;;;2.30;99.90;;;1.04;100.00;97001.75;5089908;28;20753;-74
2022/12/04 02:11:02;;;;;;;144.30;41.45;;;2.40;99.90;;;1.08;100.00;96996.94;5071715;28;20409;-74
2022/12/04 02:13:35;;;;;;;141.10;41.03;;;2.40;99.90;;;1.05;100.00;96989.53;5089140;28;20439;-74
2022/12/04 02:16:10;;;;;;;124.93;37.90;;;2.40;99.90;;;1.05;100.00;96992.13;5089935;28;20430;-75
2022/12/04 02:18:50;;;;;;;134.48;39.10;;;2.30;99.90;;;1.05;100.00;96973.88;5089896;28;20394;-74
2022/12/04 02:21:26;;;;;;;140.05;40.25;;;2.40;99.90;;;1.07;100.00;96979.69;5089773;28;20466;-74
2022/12/04 02:24:17;;;;;;;132.73;39.03;;;2.40;99.90;;;1.05;100.00;96972.06;5088945;28;20429;-74
2022/12/04 02:26:49;;;;;;;142.45;42.00;;;2.40;99.90;;;1.03;100.00;96973.28;5089746;28;20484;-74
2022/12/04 02:29:31;;;;;;;133.85;40.08;;;2.30;99.90;;;1.03;100.00;96968.88;5089676;28;20417;-74
2022/12/04 02:32:04;;;;;;;138.70;43.10;;;2.30;99.90;;;1.03;100.00;96968.06;5089690;28;20398;-74
2022/12/04 02:34:38;;;;;;;123.07;38.13;;;2.30;99.90;;;1.04;100.00;96969.69;5088922;28;20889;-74
2022/12/04 02:37:11;;;;;;;121.32;37.28;;;2.40;99.90;;;1.05;100.00;96966.06;5089628;28;20427;-74
2022/12/04 02:39:43;;;;;;;132.30;41.45;;;2.30;99.90;;;1.05;100.00;96964.22;5089558;28;20426;-74
2022/12/04 02:42:15;;;;;;;122.60;38.83;;;2.40;99.90;;;1.05;100.00;96971.28;5089479;28;20425;-71
2022/12/04 02:44:48;;;;;;;133.32;38.70;;;2.40;99.90;;;1.08;100.00;96965.66;5089006;28;20406;-74
2022/12/04 02:47:18;;;;;;;146.77;42.85;;;2.40;99.90;;;1.08;100.00;96963.03;5089265;28;20822;-74
2022/12/04 02:49:50;;;;;;;149.15;42.85;;;2.40;99.90;;;1.08;100.00;96958.63;5089484;28;20401;-74
2022/12/04 02:52:21;;;;;;;129.30;41.10;;;2.40;99.90;;;1.12;100.00;96961.66;5089483;28;20398;-74
2022/12/04 02:54:54;;;;;;;134.57;43.33;;;2.40;99.90;;;1.11;100.00;96952.22;5088677;28;20776;-74
2022/12/04 02:57:25;;;;;;;133.13;40.72;;;2.40;99.90;;;1.08;100.00;96956.03;5089411;28;20390;-74
2022/12/04 02:59:55;;;;;;;130.75;40.05;;;2.40;99.90;;;1.06;100.00;96957.22;5092687;28;20398;-74
2022/12/04 03:02:28;;;;;;;138.60;41.63;;;2.40;99.90;;;1.07;100.00;96949.22;5093562;28;20493;-74
2022/12/04 03:04:57;;;;;;;134.73;41.17;;;2.40;99.90;;;1.07;100.00;96951.00;5092635;28;20432;-74
2022/12/04 03:07:31;;;;;;;128.23;40.05;;;2.40;99.90;;;1.11;100.00;96953.03;5093317;28;20511;-74
2022/12/04 03:10:04;;;;;;;146.25;43.85;;;2.40;99.90;;;1.12;100.00;96954.63;5093672;28;20402;-73
2022/12/04 03:12:40;;;;;;;141.45;43.22;;;2.40;99.90;;;1.12;100.00;96953.84;5093228;28;20455;-72
2022/12/04 03:15:15;;;;;;;139.07;42.22;;;2.40;99.90;;;1.12;100.00;96959.03;5093006;28;20401;-74
2022/12/04 03:17:49;;;;;;;147.23;44.92;;;2.40;99.90;;;1.11;100.00;96949.63;5093284;28;20729;-74
2022/12/04 03:20:16;;;;;;;145.25;43.03;;;2.40;99.90;;;1.11;100.00;96949.63;5093105;28;20406;-74
2022/12/04 03:22:48;;;;;;;137.98;41.95;;;2.40;99.90;;;1.13;100.00;96940.56;5092511;28;20522;-74
2022/12/04 03:25:14;;;;;;;141.35;42.13;;;2.40;99.90;;;1.12;100.00;96940.81;5092942;28;20919;-74
2022/12/04 03:27:47;;;;;;;144.77;44.45;;;2.40;99.90;;;1.09;100.00;96939.41;5093026;28;20413;-74
2022/12/04 03:30:17;;;;;;;136.85;42.90;;;2.40;99.90;;;1.10;100.00;96941.00;5093093;28;20406;-74
2022/12/04 03:32:49;;;;;;;139.38;40.75;;;2.40;99.90;;;1.11;100.00;96931.38;5091904;28;20771;-74
2022/12/04 03:35:21;;;;;;;141.35;42.45;;;2.40;99.90;;;1.12;100.00;96928.56;5090885;28;20795;-74
2022/12/04 03:37:55;;;;;;;137.40;45.83;;;2.40;99.90;;;1.08;100.00;96934.38;5084630;28;20759;-74
2022/12/04 03:40:27;;;;;;;130.30;42.83;;;2.40;99.90;;;1.06;100.00;96925.94;5092645;28;20390;-74
2022/12/04 03:43:01;;;;;;;136.20;42.42;;;2.40;99.90;;;1.06;100.00;96923.34;5091889;28;20405;-74
2022/12/04 03:45:41;;;;;;;141.75;42.88;;;2.40;99.90;;;1.08;100.00;96924.75;5092707;28;20443;-74
2022/12/04 03:48:16;;;;;;;144.45;44.85;;;2.40;99.90;;;1.07;100.00;96914.53;5092689;28;20414;-73
2022/12/04 03:50:50;;;;;;;134.90;41.78;;;2.40;99.90;;;1.08;100.00;96929.16;5092370;28;20405;-74
2022/12/04 03:53:22;;;;;;;143.02;43.85;;;2.40;99.90;;;1.10;100.00;96934.97;5091491;28;20879;-74
2022/12/04 03:55:55;;;;;;;135.32;40.30;;;2.40;99.90;;;1.11;100.00;96931.38;5092447;28;20447;-73
2022/12/04 03:58:27;;;;;;;141.88;42.55;;;2.40;99.90;;;1.13;100.00;96930.16;5092626;28;20425;-73
2022/12/04 04:00:57;;;;;;;136.07;41.87;;;2.50;99.90;;;1.13;100.00;96924.94;5092475;28;20425;-74
2022/12/04 04:03:27;;;;;;;135.02;40.53;;;2.40;99.90;;;1.13;100.00;96929.34;5091656;28;20619;-74
2022/12/04 04:05:59;;;;;;;135.48;40.83;;;2.50;99.90;;;1.12;100.00;96931.19;5092081;28;20837;-74
2022/12/04 04:08:32;;;;;;;139.07;42.15;;;2.40;99.90;;;1.15;100.00;96932.56;5092195;28;20449;-74
2022/12/04 04:11:09;;;;;;;153.90;44.15;;;2.40;99.90;;;1.14;100.00;96936.16;5091689;28;20394;-74
2022/12/04 04:24:58;;;;;;;151.57;45.83;;;2.20;99.90;;;0.99;100.00;96964.25;5091106;28;20455;-74
2022/12/04 04:27:24;;;;;;;142.20;44.25;;;2.30;99.90;;;0.99;100.00;96970.25;5092195;28;20398;-74
2022/12/04 04:29:51;;;;;;;144.98;45.42;;;2.30;99.90;;;0.99;100.00;96967.66;5091936;28;20774;-74
2022/12/04 04:32:32;;;;;;;145.10;44.75;;;2.30;99.90;;;1.00;100.00;96966.66;5091789;28;20409;-74
2022/12/04 04:35:09;;;;;;;151.57;46.58;;;2.30;99.90;;;1.00;100.00;96960.63;5090575;28;20394;-74
2022/12/04 04:37:45;;;;;;;154.43;46.00;;;2.30;99.90;;;1.01;100.00;96957.84;5091720;28;21058;-74
2022/12/04 04:40:20;;;;;;;141.05;44.10;;;2.30;99.90;;;0.98;100.00;96960.03;5091602;28;20811;-74
2022/12/04 04:42:53;;;;;;;141.68;43.65;;;2.30;99.90;;;1.00;100.00;96960.63;5082526;28;20424;-73
2022/12/04 04:45:25;;;;;;;147.80;45.00;;;2.30;99.90;;;1.01;100.00;96959.63;5091485;28;20413;-74
2022/12/04 04:47:59;;;;;;;138.63;44.03;;;2.30;99.90;;;0.95;100.00;96947.41;5091504;28;20428;-74
2022/12/04 04:50:26;;;;;;;151.07;45.35;;;2.20;99.90;;;0.96;100.00;96947.22;5091445;28;20394;-74
2022/12/04 04:52:58;;;;;;;141.45;41.90;;;2.20;99.90;;;0.98;100.00;96949.59;5090463;28;20879;-74
2022/12/04 04:55:25;;;;;;;158.30;45.73;;;2.30;99.90;;;1.04;100.00;96956.66;5073318;28;20398;-73
2022/12/04 04:57:51;;;;;;;150.90;45.50;;;2.30;99.90;;;1.02;100.00;96951.63;5091324;28;20864;-74
2022/12/04 05:00:19;;;;;;;173.02;46.63;;;2.30;99.90;;;1.04;100.00;96946.22;5091214;28;20417;-74
2022/12/04 05:02:47;;;;;;;159.60;45.70;;;2.40;99.90;;;1.05;100.00;96958.25;5090689;28;20398;-73
2022/12/04 05:07:53;;;;;;;156.47;43.03;;;2.40;99.90;;;1.07;100.00;96969.25;5108759;28;20451;-70
2022/12/04 05:10:19;;;;;;;158.70;44.42;;;2.40;99.90;;;1.09;100.00;96967.25;5111332;28;20453;-70
2022/12/04 05:12:45;;;;;;;163.90;45.50;;;2.40;99.90;;;1.08;100.00;96958.63;5110915;28;20400;-70
2022/12/04 05:15:11;;;;;;;173.43;47.35;;;2.40;99.90;;;1.00;100.00;96958.03;5111476;28;20411;-70
2022/12/04 05:17:37;;;;;;;136.95;40.95;;;2.30;99.90;;;1.03;100.00;96955.84;5111210;28;20474;-70
2022/12/04 05:20:03;;;;;;;147.13;41.72;;;2.30;99.90;;;1.04;100.00;96956.66;5111263;28;20483;-70
2022/12/04 05:22:33;;;;;;;157.25;42.60;;;2.40;99.90;;;1.03;100.00;96953.22;5110425;28;20410;-70
2022/12/04 05:25:02;;;;;;;134.00;40.03;;;2.40;99.90;;;1.06;100.00;96963.25;5110455;28;20396;-70
2022/12/04 05:27:29;;;;;;;136.63;41.80;;;2.40;99.90;;;1.02;100.00;96959.44;5111039;28;20472;-70
2022/12/04 05:29:57;;;;;;;127.05;38.13;;;2.30;99.90;;;1.01;100.00;96952.63;5126940;27;20412;-70
2022/12/04 05:32:25;;;;;;;134.48;39.28;;;2.30;99.90;;;1.01;100.00;96949.22;5111023;28;20511;-70
2022/12/04 05:34:53;;;;;;;145.63;41.33;;;2.30;99.90;;;1.02;100.00;96954.22;5110220;28;20880;-70
2022/12/04 05:37:20;;;;;;;128.48;40.40;;;2.30;99.90;;;1.03;100.00;96942.81;5110817;28;20431;-70
2022/12/04 05:39:46;;;;;;;118.88;37.95;;;2.30;99.90;;;1.04;100.00;96951.44;5111096;28;20427;-70
2022/12/04 05:42:14;;;;;;;132.88;42.00;;;2.30;99.90;;;0.99;100.00;96944.19;5110737;28;20404;-70
2022/12/04 05:44:40;;;;;;;132.13;39.67;;;2.30;99.90;;;1.01;100.00;96954.44;5109910;28;20739;-70
2022/12/04 05:47:06;;;;;;;138.98;39.42;;;2.30;99.90;;;0.95;100.00;96953.44;5110863;28;20407;-70
2022/12/04 05:49:34;;;;;;;121.90;36.90;;;2.30;99.90;;;1.01;100.00;96962.25;5110786;28;20408;-70
2022/12/04 05:52:00;;;;;;;119.82;37.55;;;2.30;99.90;;;0.95;100.00;96947.41;5110633;28;20406;-70
2022/12/04 05:54:26;;;;;;;119.97;37.85;;;2.20;99.90;;;0.95;100.00;96948.22;5109968;28;20431;-70
2022/12/04 05:56:52;;;;;;;112.10;36.42;;;2.20;99.90;;;0.91;100.00;96947.00;5111010;28;20487;-70
2022/12/04 05:59:19;;;;;;;117.72;37.58;;;2.20;99.90;;;0.89;100.00;96949.03;5110636;28;20384;-70
2022/12/04 06:01:46;;;;;;;124.18;37.60;;;2.20;99.90;;;0.84;100.00;96948.00;5110585;28;20780;-70
2022/12/04 06:04:11;;;;;;;118.22;36.60;;;2.10;99.90;;;0.79;100.00;96953.81;5109749;28;20403;-70
2022/12/04 06:06:38;;;;;;;109.10;34.97;;;2.10;99.90;;;0.80;100.00;96960.66;5110251;28;20392;-70
2022/12/04 06:09:06;;;;;;;110.32;34.75;;;2.10;99.90;;;0.83;100.00;96960.22;5110392;28;20415;-70
2022/12/04 06:11:36;;;;;;;126.75;37.25;;;2.10;99.90;;;0.80;100.00;96955.44;5110432;28;20400;-70
2022/12/04 06:14:05;;;;;;;116.47;35.40;;;2.10;99.90;;;0.84;100.00;96961.84;5109370;28;20488;-71
2022/12/04 06:16:35;;;;;;;111.85;35.63;;;2.20;99.90;;;0.81;100.00;96958.84;5110197;28;20392;-71
2022/12/04 06:19:04;;;;;;;109.30;32.30;;;2.10;99.90;;;0.85;100.00;96949.63;5110183;28;20488;-71
2022/12/04 06:21:32;;;;;;;114.03;33.35;;;2.20;99.90;;;0.87;100.00;96955.44;5110243;28;20438;-71
2022/12/04 06:23:58;;;;;;;110.55;34.63;;;2.20;99.90;;;0.86;100.00;96949.41;5109216;28;20409;-71
2022/12/04 06:26:25;;;;;;;124.72;36.65;;;2.10;99.90;;;0.81;100.00;96951.03;5110098;28;20745;-72
2022/12/04 06:28:53;;;;;;;126.18;36.03;;;2.10;99.90;;;0.86;100.00;96952.03;5125967;27;20937;-71
2022/12/04 06:31:19;;;;;;;98.40;33.63;;;2.10;99.90;;;0.85;100.00;96947.00;5109996;28;20919;-71
2022/12/04 06:33:47;;;;;;;111.53;35.17;;;2.20;99.90;;;0.83;100.00;96951.63;5109406;28;20411;-71
2022/12/04 06:36:15;;;;;;;114.82;35.28;;;2.10;99.90;;;0.80;100.00;96952.03;5109832;28;20426;-71
2022/12/04 06:38:41;;;;;;;108.30;34.83;;;2.10;99.90;;;0.85;100.00;96947.81;5109988;28;20493;-71
2022/12/04 06:41:11;;;;;;;116.00;34.08;;;2.10;99.90;;;0.85;100.00;96940.00;5109982;28;20449;-71
2022/12/04 06:43:38;;;;;;;108.22;32.05;;;2.20;99.90;;;0.88;100.00;96950.03;5109143;28;20892;-71
2022/12/04 06:46:08;;;;;;;112.13;33.83;;;2.20;99.90;;;0.90;100.00;96950.63;5109830;28;20479;-71
2022/12/04 06:48:34;;;;;;;111.13;32.63;;;2.20;99.90;;;0.93;100.00;96954.63;5109814;28;20407;-71
2022/12/04 06:51:05;;;;;;;114.07;33.70;;;2.20;99.90;;;0.96;100.00;96949.03;5109705;28;20392;-71
2022/12/04 06:53:32;;;;;;;117.30;34.47;;;2.30;99.90;;;0.98;100.00;96960.03;5109155;28;21197;-71
2022/12/04 06:56:01;;;;;;;121.28;35.08;;;2.30;99.90;;;1.00;100.00;96958.84;5109809;28;20392;-71
2022/12/04 06:58:34;;;;;;;126.97;35.65;;;2.30;99.90;;;1.03;100.00;96957.66;5105295;28;20403;-71
2022/12/04 07:01:08;;;;;;;132.13;37.92;;;2.30;99.90;;;1.03;100.00;96957.66;5102086;28;20495;-72
2022/12/04 07:03:35;;;;;;;121.28;35.83;;;2.30;99.90;;;1.04;100.00;96956.66;5099349;28;20400;-72
2022/12/04 07:06:13;;;;;;;130.63;38.30;;;2.30;99.90;;;1.03;100.00;96958.44;5112824;28;20974;-72
2022/12/04 07:08:39;;;;;;;113.60;35.05;;;2.40;99.90;;;1.08;100.00;96966.44;5096716;28;20410;-71
2022/12/04 07:11:05;;;;;;;137.15;39.85;;;2.40;99.90;;;1.08;100.00;96961.25;5108145;28;20944;-71
2022/12/04 07:13:31;;;;;;;134.83;38.53;;;2.40;99.90;;;1.08;100.00;96958.63;5102259;28;20430;-71
2022/12/04 07:15:59;;;;;;;122.93;36.47;;;2.40;99.90;;;1.10;100.00;96963.66;5103925;28;20542;-71
2022/12/04 07:18:25;;;;;;;124.95;36.17;;;2.40;99.90;;;1.10;100.00;96961.03;5102271;28;20400;-71
2022/12/04 07:20:51;;;;;;;122.93;36.55;;;2.40;99.90;;;1.10;100.00;96959.25;5100864;28;20395;-72
2022/12/04 07:23:18;;;;;;;133.93;37.77;;;2.40;99.90;;;1.14;100.00;96962.22;5108457;28;20453;-71
2022/12/04 07:25:44;;;;;;;131.23;37.83;;;2.40;99.90;;;1.12;100.00;96965.06;5109278;28;20469;-72
2022/12/04 07:28:10;;;;;;;125.88;36.42;;;2.40;99.90;;;1.12;100.00;96954.63;5109531;28;20408;-71
2022/12/04 07:30:36;;;;;;;131.63;38.10;;;2.40;99.90;;;1.13;100.00;96953.59;5109243;28;21020;-71
2022/12/04 07:33:03;;;;;;;115.10;34.72;;;2.40;99.90;;;1.15;100.00;96962.03;5108320;28;20396;-71
2022/12/04 07:35:29;;;;;;;126.55;35.60;;;2.40;99.90;;;1.15;100.00;96956.03;5100423;28;20410;-72
2022/12/04 07:37:55;;;;;;;127.07;36.85;;;2.40;99.90;;;1.14;100.00;96959.63;5099281;28;20396;-71
2022/12/04 07:40:22;;;;;;;122.43;36.08;;;2.40;99.90;;;1.13;100.00;96958.81;5098357;28;20448;-70
2022/12/04 07:42:48;;;;;;;125.45;36.42;;;2.40;99.90;;;1.14;100.00;96957.03;5096724;28;20753;-72
2022/12/04 07:45:17;;;;;;;124.97;35.65;;;2.50;99.90;;;1.15;100.00;96961.22;5094902;28;20416;-71
2022/12/04 07:47:42;;;;;;;124.33;35.13;;;2.40;99.90;;;1.17;100.00;96957.44;5102569;27;20500;-71
2022/12/04 07:50:09;;;;;;;146.30;38.97;;;2.50;99.90;;;1.18;100.00;96955.63;5106420;27;20494;-71
2022/12/04 07:52:35;;;;;;;124.57;36.20;;;2.50;99.90;;;1.20;100.00;96955.44;5108782;27;20518;-71
2022/12/04 07:55:01;;;;;;;131.00;38.17;;;2.50;99.90;;;1.20;100.00;96958.84;5102845;27;20413;-72
2022/12/04 07:57:28;;;;;;;140.48;39.67;;;2.50;99.90;;;1.22;100.00;96959.41;5110318;27;20394;-71
2022/12/04 07:59:54;;;;;;;139.55;40.25;;;2.50;99.90;;;1.21;100.00;96968.25;5124644;27;20402;-71
2022/12/04 08:02:20;;;;;;;127.32;36.13;;;2.50;99.90;;;1.23;100.00;96960.22;5133101;27;20406;-70
2022/12/04 08:04:46;;;;;;;132.20;37.43;;;2.50;99.90;;;1.25;100.00;96971.25;5129571;27;20823;-71
2022/12/04 08:07:12;;;;;;;134.38;37.03;;;2.50;99.90;;;1.27;100.00;96967.47;5120872;27;20412;-71
2022/12/04 08:09:39;;;;;;;132.77;36.13;;;2.50;99.90;;;1.27;100.00;96964.84;5132017;27;20418;-71
2022/12/04 08:12:05;;;;;;;136.13;38.03;;;2.60;99.90;;;1.29;100.00;96962.00;5133098;27;20394;-71
2022/12/04 08:14:32;;;;;;;131.10;39.85;;;2.60;99.90;;;1.30;100.00;96966.22;5132101;27;20394;-71
2022/12/04 08:16:58;;;;;;;138.13;39.25;;;2.60;99.90;;;1.31;100.00;96970.44;5121803;27;20410;-70
2022/12/04 08:19:24;;;;;;;131.40;38.23;;;2.60;99.90;;;1.33;100.00;96963.22;5121178;27;20387;-72
2022/12/04 08:21:52;;;;;;;143.18;38.92;;;2.60;99.90;;;1.34;100.00;96959.63;5120073;27;20392;-73
2022/12/04 08:24:18;;;;;;;130.45;37.50;;;2.60;99.90;;;1.35;100.00;96962.03;5111536;28;20484;-71
2022/12/04 08:26:44;;;;;;;138.32;39.08;;;2.60;99.90;;;1.38;100.00;96969.44;5112273;28;20537;-71
2022/12/04 08:29:10;;;;;;;126.18;38.10;;;2.70;99.90;;;1.39;100.00;96971.03;5111111;28;20416;-71
2022/12/04 08:31:37;;;;;;;132.18;36.78;;;2.70;99.90;;;1.39;100.00;96973.66;5106118;28;20848;-71
2022/12/04 08:34:06;;;;;;;150.50;42.22;;;2.70;99.90;;;1.39;100.00;96978.88;5102390;28;20395;-74
2022/12/04 08:36:33;;;;;;;134.18;38.95;;;2.70;99.90;;;1.40;100.00;96979.66;5109917;28;20404;-74
2022/12/04 08:38:59;;;;;;;126.82;36.95;;;2.70;99.90;;;1.41;100.00;96981.28;5101573;28;20405;-71
2022/12/04 08:41:26;;;;;;;132.57;37.47;;;2.70;99.90;;;1.40;100.00;96984.88;5100595;28;20400;-70
2022/12/04 08:43:54;;;;;;;125.85;37.28;;;2.70;99.90;;;1.40;100.00;96990.91;5101640;28;20404;-70
2022/12/04 08:46:21;;;;;;;107.53;33.75;;;2.70;99.90;;;1.43;100.00;96993.09;5101220;28;20398;-70
2022/12/04 08:48:48;;;;;;;111.23;34.70;;;2.70;99.90;;;1.42;100.00;96982.88;5102311;28;20529;-71
2022/12/04 08:51:18;;;;;;;122.43;36.10;;;2.70;99.90;;;1.41;100.00;96989.91;5103165;27;20418;-71
2022/12/04 08:53:44;;;;;;;113.13;34.15;;;2.70;99.90;;;1.41;100.00;96989.09;5108619;27;20398;-71
2022/12/04 08:56:11;;;;;;;108.57;33.90;;;2.70;99.90;;;1.43;100.00;96989.66;5108131;27;20400;-71
2022/12/04 08:58:37;;;;;;;111.03;35.45;;;2.70;99.90;;;1.39;100.00;96996.31;5111321;28;20404;-71
2022/12/04 09:01:04;;;;;;;121.32;35.15;;;2.70;99.90;;;1.39;100.00;97004.94;5111657;28;20404;-71
2022/12/04 09:03:30;;;;;;;119.82;34.88;;;2.70;99.90;;;1.41;100.00;97000.34;5110859;28;20396;-71
2022/12/04 09:06:00;;;;;;;109.07;32.05;;;2.70;99.90;;;1.40;100.00;97001.34;5115299;27;20530;-71
2022/12/04 09:08:26;;;;;;;113.85;33.33;;;2.70;99.90;;;1.44;100.00;96996.50;5111371;28;20415;-71
2022/12/04 09:10:52;;;;;;;110.30;31.73;;;2.70;99.90;;;1.44;100.00;97007.72;5111471;28;20933;-70
2022/12/04 09:13:18;;;;;;;109.82;33.80;;;2.70;99.90;;;1.46;100.00;97002.31;5110639;28;20412;-71
2022/12/04 09:15:44;;;;;;;128.82;38.33;;;2.70;99.90;;;1.45;100.00;97011.16;5111605;28;20486;-71
2022/12/04 09:18:10;;;;;;;130.43;38.33;;;2.70;99.90;;;1.49;100.00;97009.75;5111421;28;20396;-71
2022/12/04 09:20:36;;;;;;;118.88;37.30;;;2.70;99.90;;;1.45;100.00;97008.53;5109937;28;20404;-73
2022/12/04 09:23:04;;;;;;;103.83;33.70;;;2.70;99.90;;;1.45;100.00;96998.09;5099317;28;20899;-71
2022/12/04 09:25:30;;;;;;;103.80;32.53;;;2.70;99.90;;;1.47;100.00;96999.50;5100064;28;20434;-70
2022/12/04 09:27:56;;;;;;;103.57;31.25;;;2.70;99.90;;;1.48;100.00;97001.13;5099351;28;20440;-71
2022/12/04 09:30:22;;;;;;;106.07;31.00;;;2.70;99.90;;;1.48;100.00;96998.50;5099226;28;20497;-70
2022/12/04 09:32:48;;;;;;;103.03;31.83;;;2.70;99.90;;;1.50;100.00;96982.66;5097737;28;20396;-70
2022/12/04 09:35:14;;;;;;;92.80;29.27;;;2.80;99.90;;;1.51;100.00;96981.63;5100216;28;20436;-70
2022/12/04 09:37:40;;;;;;;108.30;32.55;;;2.80;99.90;;;1.53;100.00;96977.03;5099373;28;20437;-70
2022/12/04 09:40:24;;;;;;;103.90;30.87;;;2.80;99.90;;;1.54;100.00;96970.81;5101337;28;20428;-71
2022/12/04 09:42:59;;;;;;;93.40;30.65;;;2.80;99.90;;;1.47;100.00;96973.44;5106752;28;20480;-70
2022/12/04 09:45:26;;;;;;;86.60;28.75;;;2.70;99.90;;;1.49;100.00;96961.00;5109394;28;20396;-70
2022/12/04 09:47:55;;;;;;;90.53;29.97;;;2.80;99.90;;;1.51;100.00;96953.75;5109789;28;20389;-69
2022/12/04 09:50:25;;;;;;;91.10;28.63;;;2.80;99.90;;;1.54;100.00;96950.75;5110545;28;20945;-70
2022/12/04 09:52:57;;;;;;;78.88;28.70;;;2.80;99.90;;;1.52;100.00;96944.94;5109733;28;20392;-71
2022/12/04 09:55:29;;;;;;;80.25;27.40;;;2.80;99.90;;;1.58;100.00;96929.47;5110469;28;20392;-71
2022/12/04 09:58:00;;;;;;;87.90;28.92;;;2.80;99.90;;;1.62;100.00;96931.47;5110198;28;20415;-70
2022/12/04 10:00:29;;;;;;;76.10;26.33;;;2.90;99.90;;;1.66;100.00;96926.63;5095321;28;20386;-70
2022/12/04 10:03:00;;;;;;;88.82;31.33;;;2.90;99.90;;;1.66;100.00;96926.63;5100180;28;20900;-70
2022/12/04 10:05:44;;;;;;;78.00;27.65;;;2.90;99.90;;;1.64;100.00;96926.84;5100936;28;20398;-72
2022/12/04 10:08:20;;;;;;;83.95;27.85;;;2.90;99.90;;;1.68;100.00;96911.56;5100527;28;20418;-71
2022/12/04 10:10:58;;;;;;;77.30;27.05;;;2.90;99.90;;;1.70;100.00;96907.75;5098043;28;20393;-72
2022/12/04 10:14:03;;;;;;;81.87;27.23;;;3.00;99.90;;;1.72;100.00;96903.16;5099088;28;20386;-72
2022/12/04 10:16:47;;;;;;;87.75;29.80;;;3.00;99.90;;;1.75;100.00;96907.94;5093021;28;20501;-71
2022/12/04 10:19:28;;;;;;;96.18;30.80;;;3.00;99.90;;;1.76;100.00;96906.94;5089977;28;20448;-71
2022/12/04 10:22:08;;;;;;;93.93;29.30;;;3.00;99.90;;;1.79;100.00;96903.91;5089506;28;20405;-71
2022/12/04 10:24:43;;;;;;;88.15;29.17;;;3.00;99.90;;;1.80;100.00;96907.31;5088986;28;20401;-71
2022/12/04 10:27:18;;;;;;;95.15;30.75;;;3.00;99.90;;;1.81;100.00;96901.88;5089837;28;20418;-72
2022/12/04 10:29:48;;;;;;;96.57;31.07;;;3.10;99.90;;;1.82;100.00;96900.88;5122031;27;20458;-71